Bejou, Minnesota
Current Conditions -  °F | °C
As of 6:35 PM on Friday 19 Dec 2014 (Local Time) from K3N8 Reporting Station
Light Snow Light Snow  
Wind Chill: -7°   Ceiling: 900
Heat Index: -3°   Visibility: 5mi
Dew Point: -4°   Wind: 8mph
Humidity: 93%   Direction: 160°SSE
Pressure: 30.03"   Gusts: NA
Location:  47.44°N, 95.98°W
Report Text: K3N8 200035Z AUTO 16007KT 5SM -SN OVC009 M02/M03 A3003 RMK AO2 T10251035
Loading
Personal Weather Stations






























Interactive Weather Map New forecast layout! Learn more

10-Day Weather Forecast

Advertisements
Track Severe Weather on mobile